createdAt,value
2017-06-22T00:04:36.440Z,9.73
2017-06-22T00:07:04.832Z,11.03
2017-06-22T00:09:33.205Z,9.43
2017-06-22T00:12:01.739Z,9.23
2017-06-22T00:14:30.136Z,11.23
2017-06-22T00:16:58.614Z,10.13
2017-06-22T00:19:27.729Z,9.03
2017-06-22T00:21:56.119Z,9.10
2017-06-22T00:24:24.844Z,9.40
2017-06-22T00:26:53.234Z,9.13
2017-06-22T00:29:21.640Z,12.00
2017-06-22T00:31:50.254Z,10.13
2017-06-22T00:34:18.633Z,10.00
2017-06-22T00:36:47.181Z,9.97
2017-06-22T00:39:15.940Z,11.00
2017-06-22T00:41:44.351Z,11.00
2017-06-22T00:44:12.766Z,11.43
2017-06-22T00:46:41.490Z,9.53
2017-06-22T00:49:09.928Z,10.13
2017-06-22T00:51:38.353Z,10.50
2017-06-22T00:54:10.029Z,13.50
2017-06-22T00:56:39.141Z,10.07
2017-06-22T00:59:07.688Z,48.33
2017-06-22T01:01:36.802Z,9.70
2017-06-22T01:04:05.470Z,8.90
2017-06-22T01:06:33.850Z,10.63
2017-06-22T01:09:02.245Z,9.87
2017-06-22T01:11:30.659Z,24.13
2017-06-22T01:13:59.052Z,10.80
2017-06-22T01:16:27.547Z,15.60
2017-06-22T01:18:56.361Z,12.27
2017-06-22T01:21:24.838Z,10.77
2017-06-22T01:23:53.319Z,11.10
2017-06-22T01:26:21.800Z,10.13
2017-06-22T01:28:50.952Z,10.03
2017-06-22T01:31:19.343Z,9.50
2017-06-22T01:33:48.047Z,10.37
2017-06-22T01:36:17.261Z,10.60
2017-06-22T01:38:45.691Z,9.77
2017-06-22T01:41:14.122Z,10.33
2017-06-22T01:43:43.363Z,10.53
2017-06-22T01:46:11.858Z,9.97
2017-06-22T01:48:40.384Z,9.03
2017-06-22T01:51:08.752Z,9.30
2017-06-22T01:53:37.245Z,8.80
2017-06-22T01:56:06.647Z,9.73
2017-06-22T01:58:35.846Z,9.90
2017-06-22T02:01:04.967Z,8.80
2017-06-22T02:03:33.411Z,8.50
2017-06-22T02:06:02.531Z,8.60
2017-06-22T02:08:30.900Z,8.43
2017-06-22T02:10:59.336Z,8.37
2017-06-22T02:13:27.756Z,9.50
2017-06-22T02:15:56.150Z,10.40
2017-06-22T02:18:24.635Z,8.00
2017-06-22T02:20:53.081Z,8.07
2017-06-22T02:23:21.481Z,9.73
2017-06-22T02:25:49.903Z,8.50
2017-06-22T02:28:18.280Z,8.67
2017-06-22T02:30:46.652Z,7.40
2017-06-22T02:33:15.511Z,8.50
2017-06-22T02:35:43.888Z,9.83
2017-06-22T02:38:12.269Z,8.60
2017-06-22T02:40:40.744Z,11.20
2017-06-22T02:43:09.871Z,9.40
2017-06-22T02:45:38.252Z,8.50
2017-06-22T02:48:07.109Z,8.70
2017-06-22T02:50:36.232Z,8.93
2017-06-22T02:53:04.625Z,14.03
2017-06-22T02:55:33.263Z,8.97
2017-06-22T02:58:01.671Z,12.20
2017-06-22T03:00:30.060Z,8.63
2017-06-22T03:02:58.814Z,8.70
2017-06-22T03:05:27.189Z,9.93
2017-06-22T03:08:10.579Z,9.03
2017-06-22T03:10:38.972Z,9.83
2017-06-22T03:13:08.114Z,9.37
2017-06-22T03:15:36.543Z,11.90
2017-06-22T03:18:05.688Z,9.87
2017-06-22T03:20:34.083Z,11.47
2017-06-22T03:23:02.947Z,9.27
2017-06-22T03:25:32.061Z,10.73
2017-06-22T03:28:00.460Z,9.30
2017-06-22T03:30:28.915Z,9.00
2017-06-22T03:32:57.295Z,10.13
2017-06-22T03:35:25.672Z,9.50
2017-06-22T03:37:54.491Z,10.37
2017-06-22T03:40:23.030Z,9.83
2017-06-22T03:42:52.151Z,9.07
2017-06-22T03:45:20.557Z,8.47
2017-06-22T03:47:48.933Z,10.30
2017-06-22T03:50:17.320Z,10.23
2017-06-22T03:52:45.767Z,12.67
2017-06-22T03:55:14.431Z,9.67
2017-06-22T03:57:43.539Z,10.63
2017-06-22T04:00:12.062Z,9.87
2017-06-22T04:02:40.453Z,8.20
2017-06-22T04:05:08.842Z,8.60
2017-06-22T04:07:38.483Z,8.83
2017-06-22T04:10:06.854Z,13.13
2017-06-22T04:12:35.257Z,13.07
2017-06-22T04:15:03.652Z,10.17
2017-06-22T04:17:32.033Z,12.20
2017-06-22T04:20:00.472Z,8.53
2017-06-22T04:22:29.653Z,10.77
2017-06-22T04:24:58.820Z,10.40
2017-06-22T04:27:27.206Z,8.37
2017-06-22T04:29:55.639Z,10.13
2017-06-22T04:32:24.004Z,10.90
2017-06-22T04:34:52.384Z,9.43
2017-06-22T04:37:20.864Z,10.73
2017-06-22T04:39:50.018Z,10.60
2017-06-22T04:42:18.395Z,9.57
2017-06-22T04:44:47.127Z,12.50
2017-06-22T04:47:16.240Z,9.93
2017-06-22T04:49:44.706Z,11.53
2017-06-22T04:52:13.141Z,18.63
2017-06-22T04:54:41.519Z,9.57
2017-06-22T04:57:09.896Z,9.30
2017-06-22T04:59:39.549Z,9.77
2017-06-22T05:02:08.677Z,9.77
2017-06-22T05:04:37.076Z,9.77
2017-06-22T05:07:05.796Z,8.13
2017-06-22T05:09:34.184Z,9.97
2017-06-22T05:12:02.552Z,11.07
2017-06-22T05:14:31.007Z,11.40
2017-06-22T05:16:59.429Z,9.50
2017-06-22T05:19:27.816Z,9.23
2017-06-22T05:21:56.496Z,8.60
2017-06-22T05:24:24.841Z,10.60
2017-06-22T05:26:53.220Z,13.80
2017-06-22T05:29:22.131Z,10.90
2017-06-22T05:31:50.530Z,16.40
2017-06-22T05:34:18.944Z,9.67
2017-06-22T05:36:47.485Z,10.40
2017-06-22T05:39:15.964Z,9.23
2017-06-22T05:41:44.449Z,10.10
2017-06-22T05:44:13.611Z,8.33
2017-06-22T05:46:42.027Z,9.10
2017-06-22T05:49:10.429Z,9.90
2017-06-22T05:51:39.197Z,10.20
2017-06-22T05:54:07.576Z,11.53
2017-06-22T05:56:36.050Z,14.73
2017-06-22T05:59:04.740Z,11.70
2017-06-22T06:01:33.152Z,14.63
2017-06-22T06:04:01.555Z,10.43
2017-06-22T06:06:29.964Z,9.40
2017-06-22T06:08:58.446Z,10.53
2017-06-22T06:11:26.937Z,10.40
2017-06-22T06:13:56.140Z,10.30
2017-06-22T06:16:24.525Z,8.77
2017-06-22T06:18:52.913Z,20.63
2017-06-22T06:21:21.580Z,9.17
2017-06-22T06:23:50.163Z,9.80
2017-06-22T06:26:19.468Z,12.63
2017-06-22T06:28:48.664Z,9.90
2017-06-22T06:31:17.806Z,20.63
2017-06-22T06:33:46.221Z,22.93
2017-06-22T06:36:15.377Z,9.37
2017-06-22T06:38:43.761Z,9.20
2017-06-22T06:41:12.152Z,10.67
2017-06-22T06:43:40.923Z,8.80
2017-06-22T06:46:09.320Z,8.10
2017-06-22T06:48:37.705Z,8.60
2017-06-22T06:51:06.428Z,12.93
2017-06-22T06:53:34.823Z,13.83
2017-06-22T06:56:03.239Z,9.50
2017-06-22T06:58:32.608Z,8.80
2017-06-22T07:01:03.703Z,10.73
2017-06-22T07:03:32.517Z,9.20
2017-06-22T07:06:02.128Z,8.73
2017-06-22T07:08:31.288Z,10.63
2017-06-22T07:10:59.705Z,7.93
2017-06-22T07:13:28.757Z,9.87
2017-06-22T07:15:57.141Z,9.53
2017-06-22T07:18:25.658Z,8.50
2017-06-22T07:20:54.070Z,9.00
2017-06-22T07:23:22.433Z,8.77
2017-06-22T07:25:50.824Z,8.63
2017-06-22T07:28:19.353Z,8.90
2017-06-22T07:30:47.724Z,9.30
2017-06-22T07:33:16.144Z,11.23
2017-06-22T07:35:44.797Z,10.60
2017-06-22T07:38:13.946Z,8.90
2017-06-22T07:41:01.383Z,8.13
2017-06-22T07:43:29.760Z,9.40
2017-06-22T07:45:58.175Z,8.70
2017-06-22T07:48:27.472Z,8.70
2017-06-22T07:50:55.836Z,8.37
2017-06-22T07:53:24.280Z,9.70
2017-06-22T07:55:52.681Z,8.10
2017-06-22T07:58:21.061Z,7.40
2017-06-22T08:00:49.451Z,8.30
2017-06-22T08:03:17.894Z,12.90
2017-06-22T08:05:46.286Z,7.47
2017-06-22T08:08:14.652Z,7.80
2017-06-22T08:10:43.220Z,11.17
2017-06-22T08:13:11.607Z,8.20
2017-06-22T08:15:39.987Z,12.03
2017-06-22T08:18:08.408Z,8.97
2017-06-22T08:20:36.815Z,8.97
2017-06-22T08:23:06.143Z,9.30
2017-06-22T08:25:34.529Z,9.93
2017-06-22T08:28:03.087Z,7.60
2017-06-22T08:30:32.238Z,8.30
2017-06-22T08:33:00.679Z,15.13
2017-06-22T08:35:29.122Z,9.10
2017-06-22T08:37:57.542Z,8.53
2017-06-22T08:40:26.737Z,8.00
2017-06-22T08:42:55.157Z,9.47
2017-06-22T08:45:23.517Z,10.83
2017-06-22T08:47:51.936Z,8.63
2017-06-22T08:50:20.520Z,9.37
2017-06-22T08:52:49.763Z,8.43
2017-06-22T08:55:18.148Z,8.90
2017-06-22T08:57:46.516Z,9.73
2017-06-22T09:00:14.911Z,10.27
2017-06-22T09:02:43.352Z,8.50
2017-06-22T09:05:12.065Z,9.43
2017-06-22T09:07:40.468Z,7.80
2017-06-22T09:10:08.872Z,9.40
2017-06-22T09:12:37.371Z,8.50
2017-06-22T09:15:05.737Z,9.53
2017-06-22T09:17:34.184Z,10.60
2017-06-22T09:20:02.682Z,9.87
2017-06-22T09:22:31.076Z,8.63
2017-06-22T09:24:59.498Z,12.87
2017-06-22T09:27:27.921Z,8.60
2017-06-22T09:29:56.340Z,8.70
2017-06-22T09:32:25.868Z,9.13
2017-06-22T09:34:54.287Z,8.40
2017-06-22T09:37:22.656Z,8.67
2017-06-22T09:39:51.615Z,8.77
2017-06-22T09:42:20.098Z,8.00
2017-06-22T09:44:49.207Z,9.20
2017-06-22T09:47:17.676Z,10.20
2017-06-22T09:49:46.160Z,9.57
2017-06-22T09:52:14.576Z,11.57
2017-06-22T09:54:43.027Z,8.50
2017-06-22T09:57:11.555Z,9.40
2017-06-22T09:59:39.952Z,10.77
2017-06-22T10:02:09.522Z,8.63
2017-06-22T10:04:37.920Z,8.37
2017-06-22T10:07:06.308Z,9.53
2017-06-22T10:09:34.933Z,9.37
2017-06-22T10:12:03.325Z,9.47
2017-06-22T10:14:31.732Z,9.60
2017-06-22T10:17:00.439Z,9.70
2017-06-22T10:19:29.601Z,9.30
2017-06-22T10:21:58.000Z,10.17
2017-06-22T10:24:27.458Z,9.60
2017-06-22T10:26:55.872Z,9.20
2017-06-22T10:29:24.301Z,9.10
2017-06-22T10:31:53.015Z,10.37
2017-06-22T10:34:21.410Z,8.83
2017-06-22T10:36:49.814Z,10.33
2017-06-22T10:39:18.427Z,9.90
2017-06-22T10:41:47.609Z,12.20
2017-06-22T10:44:16.207Z,10.73
2017-06-22T10:46:45.435Z,10.73
2017-06-22T10:49:13.837Z,16.60
2017-06-22T10:51:42.239Z,11.77
2017-06-22T10:54:11.686Z,9.80
2017-06-22T10:56:40.377Z,10.07
2017-06-22T10:59:09.524Z,11.33
2017-06-22T11:01:37.996Z,14.37
2017-06-22T11:04:06.554Z,12.23
2017-06-22T11:06:34.984Z,14.10
2017-06-22T11:09:04.203Z,11.73
2017-06-22T11:11:32.658Z,14.00
2017-06-22T11:14:01.841Z,13.40
2017-06-22T11:16:31.085Z,11.10
2017-06-22T11:18:59.643Z,10.83
2017-06-22T11:21:28.084Z,11.37
2017-06-22T11:23:56.892Z,11.63
2017-06-22T11:26:25.731Z,13.97
2017-06-22T11:28:54.135Z,10.57
2017-06-22T11:31:22.520Z,11.70
2017-06-22T11:33:50.987Z,13.90
2017-06-22T11:36:19.454Z,10.30
2017-06-22T11:38:47.845Z,10.43
2017-06-22T11:41:16.265Z,11.73
2017-06-22T11:43:44.741Z,21.30
2017-06-22T11:46:13.175Z,11.93
2017-06-22T11:48:41.591Z,10.90
2017-06-22T11:51:10.032Z,10.60
2017-06-22T11:53:38.487Z,11.70
2017-06-22T11:56:07.653Z,10.63
2017-06-22T11:58:36.072Z,12.50
2017-06-22T12:01:04.574Z,11.17
2017-06-22T12:03:32.968Z,12.50
2017-06-22T12:06:01.426Z,11.10
2017-06-22T12:08:29.913Z,10.00
2017-06-22T12:10:58.362Z,9.97
2017-06-22T12:13:26.737Z,10.47
2017-06-22T12:15:56.297Z,17.83
2017-06-22T12:18:24.839Z,10.37
2017-06-22T12:20:53.444Z,11.37
2017-06-22T12:23:22.032Z,12.73
2017-06-22T12:25:50.546Z,10.20
2017-06-22T12:28:18.963Z,10.77
2017-06-22T12:30:48.187Z,13.03
2017-06-22T12:33:16.627Z,11.50
2017-06-22T12:35:45.786Z,11.00
2017-06-22T12:38:14.593Z,10.17
2017-06-22T12:40:43.002Z,10.40
2017-06-22T12:43:12.200Z,10.87
2017-06-22T12:45:40.745Z,9.50
2017-06-22T12:48:09.158Z,9.70
2017-06-22T12:50:38.393Z,11.57
2017-06-22T12:53:06.882Z,11.00
2017-06-22T12:55:36.072Z,11.00
2017-06-22T12:58:04.554Z,11.20
2017-06-22T13:00:33.809Z,9.40
2017-06-22T13:03:02.211Z,10.40
2017-06-22T13:05:31.393Z,9.83
2017-06-22T13:08:00.030Z,10.10
2017-06-22T13:10:28.475Z,11.33
2017-06-22T13:12:57.142Z,11.37
2017-06-22T13:15:25.683Z,9.93
2017-06-22T13:17:54.090Z,10.10
2017-06-22T13:20:22.489Z,10.30
2017-06-22T13:22:50.928Z,12.43
2017-06-22T13:25:19.382Z,10.70
2017-06-22T13:27:47.773Z,9.87
2017-06-22T13:30:16.225Z,13.40
2017-06-22T13:32:45.374Z,10.43
2017-06-22T13:35:13.824Z,10.23
2017-06-22T13:37:42.487Z,9.30
2017-06-22T13:40:10.906Z,11.60
2017-06-22T13:42:39.505Z,12.97
2017-06-22T13:45:08.160Z,10.10
2017-06-22T13:47:36.561Z,11.30
2017-06-22T13:50:04.966Z,10.83
2017-06-22T13:52:33.923Z,11.03
2017-06-22T13:55:02.387Z,11.37
2017-06-22T13:57:31.576Z,10.57
2017-06-22T14:00:00.307Z,11.23
2017-06-22T14:02:28.854Z,9.60
2017-06-22T14:04:57.345Z,11.10
2017-06-22T14:07:26.033Z,11.03
2017-06-22T14:09:54.470Z,10.70
2017-06-22T14:12:30.428Z,11.43
2017-06-22T14:14:58.854Z,13.47
2017-06-22T14:17:27.285Z,17.43
2017-06-22T14:19:56.480Z,14.37
2017-06-22T14:22:26.089Z,11.63
2017-06-22T14:24:54.758Z,10.57
2017-06-22T14:27:23.447Z,9.83
2017-06-22T14:29:51.885Z,10.93
2017-06-22T14:32:20.356Z,10.77
2017-06-22T14:34:48.839Z,10.63
2017-06-22T14:37:17.253Z,11.57
2017-06-22T14:39:45.725Z,11.27
2017-06-22T14:42:14.164Z,11.53
2017-06-22T14:44:42.600Z,10.90
2017-06-22T14:47:11.039Z,10.00
2017-06-22T14:49:39.522Z,11.33
2017-06-22T14:52:07.916Z,10.50
2017-06-22T14:54:36.315Z,11.57
2017-06-22T14:57:05.033Z,11.53
2017-06-22T14:59:34.264Z,10.27
2017-06-22T15:02:02.721Z,10.17
2017-06-22T15:04:31.230Z,12.03
2017-06-22T15:06:59.647Z,10.67
2017-06-22T15:09:28.030Z,10.70
2017-06-22T15:11:56.487Z,10.07
2017-06-22T15:14:24.872Z,10.60
2017-06-22T15:16:53.293Z,10.30
2017-06-22T15:19:21.739Z,11.67
2017-06-22T15:21:50.133Z,12.70
2017-06-22T15:24:18.545Z,10.93
2017-06-22T15:26:47.270Z,10.90
2017-06-22T15:29:15.665Z,17.50
2017-06-22T15:31:44.216Z,11.33
2017-06-22T15:34:12.807Z,10.60
2017-06-22T15:36:41.209Z,12.50
2017-06-22T15:39:09.663Z,10.00
2017-06-22T15:41:38.145Z,11.60
2017-06-22T15:44:06.573Z,10.87
2017-06-22T15:46:35.038Z,9.77
2017-06-22T15:49:03.478Z,10.43
2017-06-22T15:51:31.884Z,10.70
2017-06-22T15:54:00.336Z,10.90
2017-06-22T15:56:28.958Z,12.47
2017-06-22T15:58:57.377Z,10.93
2017-06-22T16:01:25.864Z,11.63
2017-06-22T16:03:54.495Z,11.80
2017-06-22T16:06:22.891Z,11.17
2017-06-22T16:08:52.164Z,10.93
2017-06-22T16:11:20.673Z,10.70
2017-06-22T16:13:49.080Z,13.30
2017-06-22T16:16:17.523Z,11.97
2017-06-22T16:18:45.975Z,14.33
2017-06-22T16:21:14.416Z,11.97
2017-06-22T16:23:42.853Z,12.20
2017-06-22T16:26:11.538Z,11.63
2017-06-22T16:28:40.053Z,11.90
2017-06-22T16:31:08.588Z,12.33
2017-06-22T16:33:37.167Z,12.63
2017-06-22T16:36:05.679Z,12.60
2017-06-22T16:38:34.102Z,12.17
2017-06-22T16:41:02.578Z,11.50
2017-06-22T16:43:31.750Z,11.97
2017-06-22T16:46:00.205Z,13.83
2017-06-22T16:48:28.650Z,25.60
2017-06-22T16:50:57.085Z,26.70
2017-06-22T16:53:25.557Z,23.40
2017-06-22T16:55:54.114Z,19.00
2017-06-22T16:58:22.515Z,18.67
2017-06-22T17:00:51.074Z,17.00
2017-06-22T17:03:20.291Z,13.10
2017-06-22T17:05:48.705Z,14.07
2017-06-22T17:08:17.258Z,13.33
2017-06-22T17:10:45.935Z,17.97
2017-06-22T17:13:14.349Z,13.77
2017-06-22T17:15:42.898Z,13.33
2017-06-22T17:18:12.279Z,14.43
2017-06-22T17:20:40.728Z,13.65
2017-06-22T17:23:09.205Z,14.50
2017-06-22T17:25:37.882Z,16.23
2017-06-22T17:28:06.296Z,16.90
2017-06-22T17:30:34.805Z,16.60
2017-06-22T17:33:03.283Z,16.20
2017-06-22T17:35:31.707Z,20.10
2017-06-22T17:38:00.177Z,17.37
2017-06-22T17:40:29.481Z,15.53
2017-06-22T17:42:57.947Z,17.63
2017-06-22T17:45:26.502Z,13.63
2017-06-22T17:47:55.009Z,18.60
2017-06-22T17:50:23.506Z,13.27
2017-06-22T17:52:51.925Z,13.07
2017-06-22T17:55:20.430Z,14.20
2017-06-22T17:57:49.088Z,10.90
2017-06-22T18:00:18.279Z,9.40
2017-06-22T18:02:47.630Z,12.57
2017-06-22T18:05:16.094Z,10.63
2017-06-22T18:07:44.572Z,12.33
2017-06-22T18:10:13.068Z,8.77
2017-06-22T18:12:41.517Z,7.47
2017-06-22T18:15:09.930Z,8.80
2017-06-22T18:17:38.828Z,13.73
2017-06-22T18:20:07.262Z,8.50
2017-06-22T18:22:36.631Z,11.13
2017-06-22T18:25:05.491Z,12.53
2017-06-22T18:27:33.935Z,11.53
2017-06-22T18:30:03.159Z,11.87
2017-06-22T18:32:31.728Z,7.63
2017-06-22T18:35:00.166Z,8.63
2017-06-22T18:37:28.617Z,7.67
2017-06-22T18:39:57.392Z,15.97
2017-06-22T18:42:26.711Z,12.80
2017-06-22T18:44:55.517Z,12.67
2017-06-22T18:47:24.307Z,10.10
2017-06-22T18:49:52.748Z,8.80
2017-06-22T18:52:21.912Z,13.33
2017-06-22T18:54:51.191Z,9.43
2017-06-22T18:57:19.735Z,10.23
2017-06-22T18:59:48.425Z,12.80
2017-06-22T19:02:16.997Z,11.10
2017-06-22T19:04:45.430Z,17.40
2017-06-22T19:07:14.652Z,16.20
2017-06-22T19:09:43.897Z,10.33
2017-06-22T19:12:12.330Z,11.17
2017-06-22T19:14:41.526Z,14.00
2017-06-22T19:17:10.193Z,14.57
2017-06-22T19:19:38.656Z,9.57
2017-06-22T19:22:07.079Z,10.37
2017-06-22T19:24:36.259Z,11.40
2017-06-22T19:27:04.689Z,12.47
2017-06-22T19:29:33.203Z,16.77
2017-06-22T19:32:01.743Z,13.90
2017-06-22T19:34:30.234Z,14.10
2017-06-22T19:36:58.694Z,14.47
2017-06-22T19:39:27.296Z,18.83
2017-06-22T19:41:55.769Z,18.03
2017-06-22T19:44:24.226Z,17.63
2017-06-22T19:46:52.729Z,20.13
2017-06-22T19:49:21.286Z,17.33
2017-06-22T19:51:50.106Z,17.50
2017-06-22T19:54:18.809Z,25.30
2017-06-22T19:56:47.988Z,21.93
2017-06-22T19:59:16.482Z,24.63
2017-06-22T20:01:45.023Z,21.00
2017-06-22T20:04:14.234Z,18.10
2017-06-22T20:06:42.713Z,17.57
2017-06-22T20:09:11.952Z,30.27
2017-06-22T20:11:40.390Z,24.17
2017-06-22T20:14:09.585Z,18.70
2017-06-22T20:16:38.849Z,25.50
2017-06-22T20:19:07.328Z,20.30
2017-06-22T20:21:35.769Z,26.30
2017-06-22T20:24:04.355Z,39.70
2017-06-22T20:26:32.877Z,22.80
2017-06-22T20:29:01.326Z,26.63
2017-06-22T20:31:29.838Z,20.07
2017-06-22T20:33:58.314Z,21.03
2017-06-22T20:36:26.743Z,21.53
2017-06-22T20:38:55.419Z,22.87
2017-06-22T20:41:23.894Z,20.83
2017-06-22T20:43:52.353Z,16.33
2017-06-22T20:46:20.847Z,18.53
2017-06-22T20:48:49.302Z,24.93
2017-06-22T20:51:17.716Z,17.20
2017-06-22T20:53:46.334Z,22.47
2017-06-22T20:56:14.809Z,28.03
2017-06-22T20:58:43.461Z,20.57
2017-06-22T21:01:11.962Z,22.43
2017-06-22T21:03:40.427Z,17.13
2017-06-22T21:06:08.913Z,18.27
2017-06-22T21:08:37.416Z,20.40
2017-06-22T21:11:05.877Z,18.23
2017-06-22T21:13:35.251Z,20.67
2017-06-22T21:16:03.768Z,20.20
2017-06-22T21:18:33.158Z,23.40
2017-06-22T21:21:02.335Z,17.50
2017-06-22T21:23:30.757Z,20.77
2017-06-22T21:25:59.252Z,19.03
2017-06-22T21:28:27.653Z,29.37
2017-06-22T21:30:56.119Z,25.30
2017-06-22T21:33:24.598Z,20.23
2017-06-22T21:35:53.035Z,25.00
2017-06-22T21:38:22.598Z,21.20
2017-06-22T21:40:51.014Z,19.97
2017-06-22T21:43:19.429Z,23.93
2017-06-22T21:45:48.071Z,21.30
2017-06-22T21:48:16.507Z,26.63
2017-06-22T21:50:44.897Z,16.13
2017-06-22T21:53:13.370Z,16.80
2017-06-22T21:55:41.787Z,19.40
2017-06-22T21:58:10.225Z,17.60
2017-06-22T22:00:38.737Z,18.23
2017-06-22T22:03:07.167Z,20.37
2017-06-22T22:05:36.348Z,15.33
2017-06-22T22:08:04.985Z,20.80
2017-06-22T22:10:33.396Z,18.20
2017-06-22T22:13:01.806Z,19.20
2017-06-22T22:15:31.040Z,16.93
2017-06-22T22:17:59.509Z,15.37
2017-06-22T22:20:27.908Z,16.70
2017-06-22T22:22:56.327Z,15.30
2017-06-22T22:25:24.725Z,15.10
2017-06-22T22:27:53.533Z,17.60
2017-06-22T22:30:22.745Z,13.10
2017-06-22T22:32:51.159Z,18.00
2017-06-22T22:35:19.655Z,20.17
2017-06-22T22:37:48.099Z,15.97
2017-06-22T22:40:16.619Z,14.17
2017-06-22T22:42:45.249Z,14.77
2017-06-22T22:45:13.657Z,14.50
2017-06-22T22:47:42.059Z,12.90
2017-06-22T22:50:10.593Z,13.60
2017-06-22T22:52:39.035Z,16.43
2017-06-22T22:55:07.465Z,23.23
2017-06-22T22:57:35.922Z,17.17
2017-06-22T23:00:04.352Z,15.23
2017-06-22T23:02:32.749Z,12.50
2017-06-22T23:05:01.984Z,17.63
2017-06-22T23:07:30.388Z,15.20
2017-06-22T23:09:58.797Z,14.00
2017-06-22T23:12:27.539Z,17.27
2017-06-22T23:14:55.947Z,15.13
2017-06-22T23:17:24.367Z,19.63
2017-06-22T23:19:53.549Z,19.70
2017-06-22T23:22:21.928Z,17.57
2017-06-22T23:24:51.096Z,16.30
2017-06-22T23:27:19.512Z,15.50
2017-06-22T23:29:48.685Z,23.33
2017-06-22T23:32:17.119Z,23.17
2017-06-22T23:34:45.548Z,17.33
2017-06-22T23:37:13.950Z,17.30
2017-06-22T23:39:42.340Z,22.13
2017-06-22T23:42:10.953Z,22.67
2017-06-22T23:44:39.364Z,23.50
2017-06-22T23:47:07.745Z,24.00
2017-06-22T23:49:36.185Z,25.83
2017-06-22T23:52:04.588Z,26.27
2017-06-22T23:54:32.998Z,22.97
2017-06-22T23:57:01.440Z,25.80
2017-06-22T23:59:29.831Z,27.50
